Terminal Aerodrome Forecast
Issued by NWS Greer, SC

Home | Current Version | Previous Version | Text Only | Print | Product List | Glossary On
Versions: 1 2 3 4 5 6 7 8 9 10 11 12 13 14 15 16 17 18 19 20 21 22 23
000
FTUS42 KGSP 271131
TAFAVL
TAF
KAVL 271131Z 2712/2812 18006KT P6SM SCT015 BKN035
      TEMPO 2712/2715 BKN015
     FM271600 19007KT P6SM VCSH BKN040
     FM271800 20008KT P6SM VCTS BKN035CB PROB30 2721/2801 4SM -TSRA
      OVC025CB
     FM280100 19005KT P6SM -SHRA BKN025
     FM280800 18004KT 3SM BR VCSH BKN010=

USA.gov is the U.S. government's official web portal to all federal, state and local government web resources and services.